sensor_id;sensor_type;location;lat;lon;timestamp;temperature;humidity
69589;SHT31;56792;50.644;17.984;2022-11-02T00:01:17;10.96;83.37
69589;SHT31;56792;50.644;17.984;2022-11-02T00:03:53;10.93;83.47
69589;SHT31;56792;50.644;17.984;2022-11-02T00:06:25;10.91;83.52
69589;SHT31;56792;50.644;17.984;2022-11-02T00:08:57;10.89;83.51
69589;SHT31;56792;50.644;17.984;2022-11-02T00:11:29;10.88;83.51
69589;SHT31;56792;50.644;17.984;2022-11-02T00:14:02;10.86;83.53
69589;SHT31;56792;50.644;17.984;2022-11-02T00:16:34;10.83;83.47
69589;SHT31;56792;50.644;17.984;2022-11-02T00:19:08;10.81;83.56
69589;SHT31;56792;50.644;17.984;2022-11-02T00:21:41;10.78;83.68
69589;SHT31;56792;50.644;17.984;2022-11-02T00:24:14;10.74;83.60
69589;SHT31;56792;50.644;17.984;2022-11-02T00:26:46;10.72;83.58
69589;SHT31;56792;50.644;17.984;2022-11-02T00:29:17;10.70;83.80
69589;SHT31;56792;50.644;17.984;2022-11-02T00:31:50;10.67;83.98
69589;SHT31;56792;50.644;17.984;2022-11-02T00:34:22;10.63;84.13
69589;SHT31;56792;50.644;17.984;2022-11-02T00:36:54;10.61;84.36
69589;SHT31;56792;50.644;17.984;2022-11-02T00:39:25;10.60;84.27
69589;SHT31;56792;50.644;17.984;2022-11-02T00:41:57;10.56;84.13
69589;SHT31;56792;50.644;17.984;2022-11-02T00:44:29;10.54;84.11
69589;SHT31;56792;50.644;17.984;2022-11-02T00:47:00;10.53;84.11
69589;SHT31;56792;50.644;17.984;2022-11-02T00:49:32;10.49;84.04
69589;SHT31;56792;50.644;17.984;2022-11-02T00:52:05;10.47;83.99
69589;SHT31;56792;50.644;17.984;2022-11-02T00:54:36;10.43;84.06
69589;SHT31;56792;50.644;17.984;2022-11-02T00:57:08;10.40;84.20
69589;SHT31;56792;50.644;17.984;2022-11-02T00:59:41;10.36;84.23
69589;SHT31;56792;50.644;17.984;2022-11-02T01:02:14;10.34;84.29
69589;SHT31;56792;50.644;17.984;2022-11-02T01:04:46;10.34;84.33
69589;SHT31;56792;50.644;17.984;2022-11-02T01:07:19;10.34;84.48
69589;SHT31;56792;50.644;17.984;2022-11-02T01:09:50;10.34;84.62
69589;SHT31;56792;50.644;17.984;2022-11-02T01:12:23;10.34;84.78
69589;SHT31;56792;50.644;17.984;2022-11-02T01:14:55;10.34;85.03
69589;SHT31;56792;50.644;17.984;2022-11-02T01:17:27;10.34;85.30
69589;SHT31;56792;50.644;17.984;2022-11-02T01:19:58;10.35;85.40
69589;SHT31;56792;50.644;17.984;2022-11-02T01:22:31;10.37;85.39
69589;SHT31;56792;50.644;17.984;2022-11-02T01:25:03;10.39;85.39
69589;SHT31;56792;50.644;17.984;2022-11-02T01:27:36;10.41;85.43
69589;SHT31;56792;50.644;17.984;2022-11-02T01:30:08;10.42;85.42
69589;SHT31;56792;50.644;17.984;2022-11-02T01:32:43;10.42;85.52
69589;SHT31;56792;50.644;17.984;2022-11-02T01:35:15;10.39;85.47
69589;SHT31;56792;50.644;17.984;2022-11-02T01:37:47;10.40;85.40
69589;SHT31;56792;50.644;17.984;2022-11-02T01:40:19;10.40;85.47
69589;SHT31;56792;50.644;17.984;2022-11-02T01:42:51;10.42;85.60
69589;SHT31;56792;50.644;17.984;2022-11-02T01:45:22;10.42;85.70
69589;SHT31;56792;50.644;17.984;2022-11-02T01:47:54;10.42;85.73
69589;SHT31;56792;50.644;17.984;2022-11-02T01:50:26;10.41;85.68
69589;SHT31;56792;50.644;17.984;2022-11-02T01:52:58;10.42;85.56
69589;SHT31;56792;50.644;17.984;2022-11-02T01:55:30;10.41;85.39
69589;SHT31;56792;50.644;17.984;2022-11-02T01:58:09;10.44;85.38
69589;SHT31;56792;50.644;17.984;2022-11-02T02:00:42;10.47;85.33
69589;SHT31;56792;50.644;17.984;2022-11-02T02:03:15;10.49;85.34
69589;SHT31;56792;50.644;17.984;2022-11-02T02:05:48;10.52;85.23
69589;SHT31;56792;50.644;17.984;2022-11-02T02:08:30;10.50;85.20
69589;SHT31;56792;50.644;17.984;2022-11-02T02:13:58;10.45;85.37
69589;SHT31;56792;50.644;17.984;2022-11-02T02:16:41;10.45;85.47
69589;SHT31;56792;50.644;17.984;2022-11-02T02:19:32;10.46;85.50
69589;SHT31;56792;50.644;17.984;2022-11-02T02:22:21;10.47;85.41
69589;SHT31;56792;50.644;17.984;2022-11-02T02:25:27;10.47;85.31
69589;SHT31;56792;50.644;17.984;2022-11-02T02:28:27;10.47;85.27
69589;SHT31;56792;50.644;17.984;2022-11-02T02:31:09;10.47;85.28
69589;SHT31;56792;50.644;17.984;2022-11-02T02:33:48;10.48;85.23
69589;SHT31;56792;50.644;17.984;2022-11-02T02:36:31;10.48;85.29
69589;SHT31;56792;50.644;17.984;2022-11-02T02:39:13;10.48;85.30
69589;SHT31;56792;50.644;17.984;2022-11-02T02:41:55;10.46;85.43
69589;SHT31;56792;50.644;17.984;2022-11-02T02:44:34;10.45;85.55
69589;SHT31;56792;50.644;17.984;2022-11-02T02:47:12;10.46;85.62
69589;SHT31;56792;50.644;17.984;2022-11-02T02:49:49;10.47;85.81
69589;SHT31;56792;50.644;17.984;2022-11-02T02:52:25;10.48;85.89
69589;SHT31;56792;50.644;17.984;2022-11-02T02:55:01;10.49;85.97
69589;SHT31;56792;50.644;17.984;2022-11-02T02:57:41;10.49;85.89
69589;SHT31;56792;50.644;17.984;2022-11-02T03:00:16;10.50;85.76
69589;SHT31;56792;50.644;17.984;2022-11-02T03:02:49;10.51;85.77
69589;SHT31;56792;50.644;17.984;2022-11-02T03:05:29;10.51;85.80
69589;SHT31;56792;50.644;17.984;2022-11-02T03:08:06;10.51;85.68
69589;SHT31;56792;50.644;17.984;2022-11-02T03:10:46;10.52;85.70
69589;SHT31;56792;50.644;17.984;2022-11-02T03:13:32;10.52;85.69
69589;SHT31;56792;50.644;17.984;2022-11-02T03:16:19;10.53;85.62
69589;SHT31;56792;50.644;17.984;2022-11-02T03:19:11;10.54;85.56
69589;SHT31;56792;50.644;17.984;2022-11-02T03:21:54;10.53;85.48
69589;SHT31;56792;50.644;17.984;2022-11-02T03:24:34;10.48;85.43
69589;SHT31;56792;50.644;17.984;2022-11-02T03:27:17;10.42;85.42
69589;SHT31;56792;50.644;17.984;2022-11-02T03:29:59;10.38;85.48
69589;SHT31;56792;50.644;17.984;2022-11-02T03:32:40;10.32;85.68
69589;SHT31;56792;50.644;17.984;2022-11-02T03:35:20;10.28;85.74
69589;SHT31;56792;50.644;17.984;2022-11-02T03:38:03;10.26;85.79
69589;SHT31;56792;50.644;17.984;2022-11-02T03:40:42;10.23;85.78
69589;SHT31;56792;50.644;17.984;2022-11-02T03:43:17;10.19;85.80
69589;SHT31;56792;50.644;17.984;2022-11-02T03:45:53;10.15;85.82
69589;SHT31;56792;50.644;17.984;2022-11-02T03:48:30;10.09;85.61
69589;SHT31;56792;50.644;17.984;2022-11-02T03:51:10;10.03;85.70
69589;SHT31;56792;50.644;17.984;2022-11-02T03:53:47;10.00;85.70
69589;SHT31;56792;50.644;17.984;2022-11-02T03:56:25;9.95;85.34
69589;SHT31;56792;50.644;17.984;2022-11-02T03:59:03;9.92;85.41
69589;SHT31;56792;50.644;17.984;2022-11-02T04:01:37;9.89;85.47
69589;SHT31;56792;50.644;17.984;2022-11-02T04:04:13;9.83;85.27
69589;SHT31;56792;50.644;17.984;2022-11-02T04:06:46;9.78;85.10
69589;SHT31;56792;50.644;17.984;2022-11-02T04:09:19;9.72;85.11
69589;SHT31;56792;50.644;17.984;2022-11-02T04:11:50;9.68;85.16
69589;SHT31;56792;50.644;17.984;2022-11-02T04:14:39;9.62;85.02
69589;SHT31;56792;50.644;17.984;2022-11-02T04:17:16;9.57;85.13
69589;SHT31;56792;50.644;17.984;2022-11-02T04:20:10;9.52;85.22
69589;SHT31;56792;50.644;17.984;2022-11-02T04:22:42;9.47;85.30
69589;SHT31;56792;50.644;17.984;2022-11-02T04:25:32;9.40;85.05
69589;SHT31;56792;50.644;17.984;2022-11-02T04:28:12;9.33;84.84
69589;SHT31;56792;50.644;17.984;2022-11-02T04:30:56;9.26;84.82
69589;SHT31;56792;50.644;17.984;2022-11-02T04:33:32;9.21;84.72
69589;SHT31;56792;50.644;17.984;2022-11-02T04:36:15;9.13;84.59
69589;SHT31;56792;50.644;17.984;2022-11-02T04:38:51;9.07;84.65
69589;SHT31;56792;50.644;17.984;2022-11-02T04:41:25;8.99;84.53
69589;SHT31;56792;50.644;17.984;2022-11-02T04:44:38;8.91;84.48
69589;SHT31;56792;50.644;17.984;2022-11-02T04:47:17;8.87;84.52
69589;SHT31;56792;50.644;17.984;2022-11-02T04:49:48;8.82;84.29
69589;SHT31;56792;50.644;17.984;2022-11-02T04:52:20;8.77;84.15
69589;SHT31;56792;50.644;17.984;2022-11-02T04:54:53;8.73;84.04
69589;SHT31;56792;50.644;17.984;2022-11-02T04:57:25;8.68;83.97
69589;SHT31;56792;50.644;17.984;2022-11-02T04:59:58;8.63;83.93
69589;SHT31;56792;50.644;17.984;2022-11-02T05:02:33;8.58;84.01
69589;SHT31;56792;50.644;17.984;2022-11-02T05:05:05;8.56;84.04
69589;SHT31;56792;50.644;17.984;2022-11-02T05:07:39;8.55;84.08
69589;SHT31;56792;50.644;17.984;2022-11-02T05:10:12;8.50;84.12
69589;SHT31;56792;50.644;17.984;2022-11-02T05:12:45;8.44;84.07
69589;SHT31;56792;50.644;17.984;2022-11-02T05:15:23;8.39;84.09
69589;SHT31;56792;50.644;17.984;2022-11-02T05:17:55;8.38;84.09
69589;SHT31;56792;50.644;17.984;2022-11-02T05:20:28;8.38;84.08
69589;SHT31;56792;50.644;17.984;2022-11-02T05:23:00;8.41;84.11
69589;SHT31;56792;50.644;17.984;2022-11-02T05:25:32;8.45;84.08
69589;SHT31;56792;50.644;17.984;2022-11-02T05:28:05;8.49;84.60
69589;SHT31;56792;50.644;17.984;2022-11-02T05:30:37;8.55;84.85
69589;SHT31;56792;50.644;17.984;2022-11-02T05:33:09;8.60;84.97
69589;SHT31;56792;50.644;17.984;2022-11-02T05:35:42;8.64;85.01
69589;SHT31;56792;50.644;17.984;2022-11-02T05:38:15;8.67;85.13
69589;SHT31;56792;50.644;17.984;2022-11-02T05:40:51;8.72;85.32
69589;SHT31;56792;50.644;17.984;2022-11-02T05:43:26;8.75;85.57
69589;SHT31;56792;50.644;17.984;2022-11-02T05:45:59;8.77;85.88
69589;SHT31;56792;50.644;17.984;2022-11-02T05:48:32;8.79;85.97
69589;SHT31;56792;50.644;17.984;2022-11-02T05:51:04;8.75;85.97
69589;SHT31;56792;50.644;17.984;2022-11-02T05:53:36;8.70;85.96
69589;SHT31;56792;50.644;17.984;2022-11-02T05:56:08;8.69;86.15
69589;SHT31;56792;50.644;17.984;2022-11-02T05:58:40;8.71;86.39
69589;SHT31;56792;50.644;17.984;2022-11-02T06:01:12;8.73;86.39
69589;SHT31;56792;50.644;17.984;2022-11-02T06:03:44;8.73;86.52
69589;SHT31;56792;50.644;17.984;2022-11-02T06:06:16;8.73;86.55
69589;SHT31;56792;50.644;17.984;2022-11-02T06:08:48;8.74;86.71
69589;SHT31;56792;50.644;17.984;2022-11-02T06:11:20;8.75;86.79
69589;SHT31;56792;50.644;17.984;2022-11-02T06:13:52;8.75;86.75
69589;SHT31;56792;50.644;17.984;2022-11-02T06:16:24;8.77;86.78
69589;SHT31;56792;50.644;17.984;2022-11-02T06:18:55;8.78;86.79
69589;SHT31;56792;50.644;17.984;2022-11-02T06:21:27;8.81;86.86
69589;SHT31;56792;50.644;17.984;2022-11-02T06:23:59;8.82;86.80
69589;SHT31;56792;50.644;17.984;2022-11-02T06:26:31;8.83;86.93
69589;SHT31;56792;50.644;17.984;2022-11-02T06:29:03;8.85;86.99
69589;SHT31;56792;50.644;17.984;2022-11-02T06:31:36;8.86;86.89
69589;SHT31;56792;50.644;17.984;2022-11-02T06:34:07;8.89;86.97
69589;SHT31;56792;50.644;17.984;2022-11-02T06:36:42;8.94;87.18
69589;SHT31;56792;50.644;17.984;2022-11-02T06:39:16;9.01;87.25
69589;SHT31;56792;50.644;17.984;2022-11-02T06:41:48;9.06;87.41
69589;SHT31;56792;50.644;17.984;2022-11-02T06:44:20;9.13;87.52
69589;SHT31;56792;50.644;17.984;2022-11-02T06:46:52;9.19;87.57
69589;SHT31;56792;50.644;17.984;2022-11-02T06:49:24;9.25;87.67
69589;SHT31;56792;50.644;17.984;2022-11-02T06:51:56;9.31;87.74
69589;SHT31;56792;50.644;17.984;2022-11-02T06:54:28;9.41;87.89
69589;SHT31;56792;50.644;17.984;2022-11-02T06:57:00;9.51;88.09
69589;SHT31;56792;50.644;17.984;2022-11-02T06:59:34;9.61;87.99
69589;SHT31;56792;50.644;17.984;2022-11-02T07:02:07;9.69;87.95
69589;SHT31;56792;50.644;17.984;2022-11-02T07:04:39;9.77;87.89
69589;SHT31;56792;50.644;17.984;2022-11-02T07:07:11;9.86;87.80
69589;SHT31;56792;50.644;17.984;2022-11-02T07:09:44;10.03;87.62
69589;SHT31;56792;50.644;17.984;2022-11-02T07:12:16;10.27;87.42
69589;SHT31;56792;50.644;17.984;2022-11-02T07:14:49;10.52;87.03
69589;SHT31;56792;50.644;17.984;2022-11-02T07:17:23;10.78;86.64
69589;SHT31;56792;50.644;17.984;2022-11-02T07:19:56;11.02;86.15
69589;SHT31;56792;50.644;17.984;2022-11-02T07:22:29;11.20;85.66
69589;SHT31;56792;50.644;17.984;2022-11-02T07:25:02;11.39;85.28
69589;SHT31;56792;50.644;17.984;2022-11-02T07:27:38;11.63;84.87
69589;SHT31;56792;50.644;17.984;2022-11-02T07:30:12;11.87;84.38
69589;SHT31;56792;50.644;17.984;2022-11-02T07:32:45;12.03;83.88
69589;SHT31;56792;50.644;17.984;2022-11-02T07:35:17;12.12;83.54
69589;SHT31;56792;50.644;17.984;2022-11-02T07:37:56;12.23;83.17
69589;SHT31;56792;50.644;17.984;2022-11-02T07:40:31;12.36;82.89
69589;SHT31;56792;50.644;17.984;2022-11-02T07:43:05;12.50;82.45
69589;SHT31;56792;50.644;17.984;2022-11-02T07:45:41;12.70;82.12
69589;SHT31;56792;50.644;17.984;2022-11-02T07:48:13;12.90;81.55
69589;SHT31;56792;50.644;17.984;2022-11-02T07:50:46;13.08;81.20
69589;SHT31;56792;50.644;17.984;2022-11-02T07:53:19;13.30;80.52
69589;SHT31;56792;50.644;17.984;2022-11-02T07:55:51;13.47;80.01
69589;SHT31;56792;50.644;17.984;2022-11-02T07:58:24;13.69;79.58
69589;SHT31;56792;50.644;17.984;2022-11-02T08:00:57;13.97;78.97
69589;SHT31;56792;50.644;17.984;2022-11-02T08:03:31;14.24;78.28
69589;SHT31;56792;50.644;17.984;2022-11-02T08:06:02;14.43;77.53
69589;SHT31;56792;50.644;17.984;2022-11-02T08:08:35;14.63;76.96
69589;SHT31;56792;50.644;17.984;2022-11-02T08:11:07;14.83;76.35
69589;SHT31;56792;50.644;17.984;2022-11-02T08:13:39;14.99;75.89
69589;SHT31;56792;50.644;17.984;2022-11-02T08:16:11;15.16;75.20
69589;SHT31;56792;50.644;17.984;2022-11-02T08:18:43;15.37;74.56
69589;SHT31;56792;50.644;17.984;2022-11-02T08:21:15;15.64;74.46
69589;SHT31;56792;50.644;17.984;2022-11-02T08:23:47;16.01;74.05
69589;SHT31;56792;50.644;17.984;2022-11-02T08:26:19;16.30;72.80
69589;SHT31;56792;50.644;17.984;2022-11-02T08:28:51;16.57;72.29
69589;SHT31;56792;50.644;17.984;2022-11-02T08:31:24;16.82;71.22
69589;SHT31;56792;50.644;17.984;2022-11-02T08:33:56;17.09;69.98
69589;SHT31;56792;50.644;17.984;2022-11-02T08:36:27;17.30;69.29
69589;SHT31;56792;50.644;17.984;2022-11-02T08:39:02;17.60;67.93
69589;SHT31;56792;50.644;17.984;2022-11-02T08:41:34;17.83;67.20
69589;SHT31;56792;50.644;17.984;2022-11-02T08:44:06;18.06;66.43
69589;SHT31;56792;50.644;17.984;2022-11-02T08:46:37;18.36;65.73
69589;SHT31;56792;50.644;17.984;2022-11-02T08:49:09;18.64;64.43
69589;SHT31;56792;50.644;17.984;2022-11-02T08:51:44;18.89;63.36
69589;SHT31;56792;50.644;17.984;2022-11-02T08:54:16;19.19;63.12
69589;SHT31;56792;50.644;17.984;2022-11-02T08:56:48;19.47;60.78
69589;SHT31;56792;50.644;17.984;2022-11-02T08:59:20;19.57;60.62
69589;SHT31;56792;50.644;17.984;2022-11-02T09:01:51;19.76;59.64
69589;SHT31;56792;50.644;17.984;2022-11-02T09:04:23;19.86;58.85
69589;SHT31;56792;50.644;17.984;2022-11-02T09:06:55;19.95;58.30
69589;SHT31;56792;50.644;17.984;2022-11-02T09:09:27;20.02;56.61
69589;SHT31;56792;50.644;17.984;2022-11-02T09:11:58;20.19;56.74
69589;SHT31;56792;50.644;17.984;2022-11-02T09:14:31;20.47;54.60
69589;SHT31;56792;50.644;17.984;2022-11-02T09:17:02;20.72;53.56
69589;SHT31;56792;50.644;17.984;2022-11-02T09:19:34;21.04;51.83
69589;SHT31;56792;50.644;17.984;2022-11-02T09:22:06;21.57;50.24
69589;SHT31;56792;50.644;17.984;2022-11-02T09:24:38;22.20;49.03
69589;SHT31;56792;50.644;17.984;2022-11-02T09:27:10;22.78;48.03
69589;SHT31;56792;50.644;17.984;2022-11-02T09:29:42;23.44;45.66
69589;SHT31;56792;50.644;17.984;2022-11-02T09:32:14;24.27;45.52
69589;SHT31;56792;50.644;17.984;2022-11-02T09:34:46;25.43;43.25
69589;SHT31;56792;50.644;17.984;2022-11-02T09:37:19;26.46;41.40
69589;SHT31;56792;50.644;17.984;2022-11-02T09:39:51;27.37;39.56
69589;SHT31;56792;50.644;17.984;2022-11-02T09:42:26;28.06;37.43
69589;SHT31;56792;50.644;17.984;2022-11-02T09:45:12;28.60;36.29
69589;SHT31;56792;50.644;17.984;2022-11-02T09:47:49;28.94;35.61
69589;SHT31;56792;50.644;17.984;2022-11-02T09:50:29;29.25;35.56
69589;SHT31;56792;50.644;17.984;2022-11-02T09:53:17;29.89;34.92
69589;SHT31;56792;50.644;17.984;2022-11-02T09:55:54;30.61;34.33
69589;SHT31;56792;50.644;17.984;2022-11-02T09:58:33;31.25;33.43
69589;SHT31;56792;50.644;17.984;2022-11-02T10:01:10;31.62;32.09
69589;SHT31;56792;50.644;17.984;2022-11-02T10:04:02;32.03;31.92
69589;SHT31;56792;50.644;17.984;2022-11-02T10:07:15;32.60;30.48
69589;SHT31;56792;50.644;17.984;2022-11-02T10:10:00;32.90;29.48
69589;SHT31;56792;50.644;17.984;2022-11-02T10:12:41;32.85;28.18
69589;SHT31;56792;50.644;17.984;2022-11-02T10:15:27;32.99;28.36
69589;SHT31;56792;50.644;17.984;2022-11-02T10:18:10;33.26;28.06
69589;SHT31;56792;50.644;17.984;2022-11-02T10:20:48;33.55;27.58
69589;SHT31;56792;50.644;17.984;2022-11-02T10:23:25;33.77;27.32
69589;SHT31;56792;50.644;17.984;2022-11-02T10:26:04;34.23;27.12
69589;SHT31;56792;50.644;17.984;2022-11-02T10:28:44;34.88;26.93
69589;SHT31;56792;50.644;17.984;2022-11-02T10:31:26;35.08;26.11
69589;SHT31;56792;50.644;17.984;2022-11-02T10:34:04;35.23;25.92
69589;SHT31;56792;50.644;17.984;2022-11-02T10:36:50;35.17;25.05
69589;SHT31;56792;50.644;17.984;2022-11-02T10:39:38;35.01;25.34
69589;SHT31;56792;50.644;17.984;2022-11-02T10:42:29;35.04;25.08
69589;SHT31;56792;50.644;17.984;2022-11-02T10:45:28;34.92;24.92
69589;SHT31;56792;50.644;17.984;2022-11-02T10:48:36;35.27;24.29
69589;SHT31;56792;50.644;17.984;2022-11-02T10:51:19;34.90;24.42
69589;SHT31;56792;50.644;17.984;2022-11-02T10:53:53;35.16;24.32
69589;SHT31;56792;50.644;17.984;2022-11-02T10:56:28;35.46;24.00
69589;SHT31;56792;50.644;17.984;2022-11-02T10:59:04;35.81;23.73
69589;SHT31;56792;50.644;17.984;2022-11-02T11:01:45;36.09;23.24
69589;SHT31;56792;50.644;17.984;2022-11-02T11:04:37;36.61;23.38
69589;SHT31;56792;50.644;17.984;2022-11-02T11:07:13;37.38;23.02
69589;SHT31;56792;50.644;17.984;2022-11-02T11:09:53;37.65;21.88
69589;SHT31;56792;50.644;17.984;2022-11-02T11:12:28;37.66;21.55
69589;SHT31;56792;50.644;17.984;2022-11-02T11:15:15;37.65;21.51
69589;SHT31;56792;50.644;17.984;2022-11-02T11:17:58;37.81;21.10
69589;SHT31;56792;50.644;17.984;2022-11-02T11:20:40;37.52;21.32
69589;SHT31;56792;50.644;17.984;2022-11-02T11:23:17;37.07;21.21
69589;SHT31;56792;50.644;17.984;2022-11-02T11:25:56;36.51;22.07
69589;SHT31;56792;50.644;17.984;2022-11-02T11:28:31;36.55;22.05
69589;SHT31;56792;50.644;17.984;2022-11-02T11:31:09;35.80;22.37
69589;SHT31;56792;50.644;17.984;2022-11-02T11:33:46;35.61;22.18
69589;SHT31;56792;50.644;17.984;2022-11-02T11:36:23;35.61;22.74
69589;SHT31;56792;50.644;17.984;2022-11-02T11:38:58;35.91;22.37
69589;SHT31;56792;50.644;17.984;2022-11-02T11:41:37;35.70;22.49
69589;SHT31;56792;50.644;17.984;2022-11-02T11:44:11;35.56;22.52
69589;SHT31;56792;50.644;17.984;2022-11-02T11:46:44;35.54;22.48
69589;SHT31;56792;50.644;17.984;2022-11-02T11:49:22;35.85;22.59
69589;SHT31;56792;50.644;17.984;2022-11-02T11:52:00;36.12;22.00
69589;SHT31;56792;50.644;17.984;2022-11-02T11:54:33;36.52;22.13
69589;SHT31;56792;50.644;17.984;2022-11-02T11:57:20;36.19;21.98
69589;SHT31;56792;50.644;17.984;2022-11-02T11:59:57;36.02;22.50
69589;SHT31;56792;50.644;17.984;2022-11-02T12:03:00;36.28;22.50
69589;SHT31;56792;50.644;17.984;2022-11-02T12:05:37;36.76;22.57
69589;SHT31;56792;50.644;17.984;2022-11-02T12:08:29;37.23;21.41
69589;SHT31;56792;50.644;17.984;2022-11-02T12:11:19;36.54;21.81
69589;SHT31;56792;50.644;17.984;2022-11-02T12:14:11;37.04;22.07
69589;SHT31;56792;50.644;17.984;2022-11-02T12:17:06;37.12;21.86
69589;SHT31;56792;50.644;17.984;2022-11-02T12:20:14;37.56;21.13
69589;SHT31;56792;50.644;17.984;2022-11-02T12:23:06;37.76;21.06
69589;SHT31;56792;50.644;17.984;2022-11-02T12:25:56;37.20;20.38
69589;SHT31;56792;50.644;17.984;2022-11-02T12:28:55;36.74;21.13
69589;SHT31;56792;50.644;17.984;2022-11-02T12:31:47;36.79;20.76
69589;SHT31;56792;50.644;17.984;2022-11-02T12:34:38;36.64;20.72
69589;SHT31;56792;50.644;17.984;2022-11-02T12:37:43;36.48;20.04
69589;SHT31;56792;50.644;17.984;2022-11-02T12:40:46;35.26;19.87
69589;SHT31;56792;50.644;17.984;2022-11-02T12:43:37;34.31;21.21
69589;SHT31;56792;50.644;17.984;2022-11-02T12:46:19;34.29;21.46
69589;SHT31;56792;50.644;17.984;2022-11-02T12:49:08;34.83;21.55
69589;SHT31;56792;50.644;17.984;2022-11-02T12:52:01;35.61;21.63
69589;SHT31;56792;50.644;17.984;2022-11-02T12:54:49;36.46;21.08
69589;SHT31;56792;50.644;17.984;2022-11-02T12:57:26;36.27;20.40
69589;SHT31;56792;50.644;17.984;2022-11-02T13:00:04;35.98;20.92
69589;SHT31;56792;50.644;17.984;2022-11-02T13:02:48;35.92;21.02
69589;SHT31;56792;50.644;17.984;2022-11-02T13:05:31;35.56;21.04
69589;SHT31;56792;50.644;17.984;2022-11-02T13:08:12;35.48;21.34
69589;SHT31;56792;50.644;17.984;2022-11-02T13:11:20;35.61;21.45
69589;SHT31;56792;50.644;17.984;2022-11-02T13:13:58;35.36;21.34
69589;SHT31;56792;50.644;17.984;2022-11-02T13:16:41;34.97;21.60
69589;SHT31;56792;50.644;17.984;2022-11-02T13:19:20;35.06;21.66
69589;SHT31;56792;50.644;17.984;2022-11-02T13:22:01;35.03;21.51
69589;SHT31;56792;50.644;17.984;2022-11-02T13:24:38;34.90;21.51
69589;SHT31;56792;50.644;17.984;2022-11-02T13:27:19;34.62;21.80
69589;SHT31;56792;50.644;17.984;2022-11-02T13:30:00;34.79;21.89
69589;SHT31;56792;50.644;17.984;2022-11-02T13:32:41;35.01;21.74
69589;SHT31;56792;50.644;17.984;2022-11-02T13:35:23;34.87;21.87
69589;SHT31;56792;50.644;17.984;2022-11-02T13:38:02;34.76;21.59
69589;SHT31;56792;50.644;17.984;2022-11-02T13:40:47;34.28;22.18
69589;SHT31;56792;50.644;17.984;2022-11-02T13:43:41;33.98;22.24
69589;SHT31;56792;50.644;17.984;2022-11-02T13:46:58;33.22;22.49
69589;SHT31;56792;50.644;17.984;2022-11-02T13:49:56;32.76;22.80
69589;SHT31;56792;50.644;17.984;2022-11-02T13:52:33;32.50;22.96
69589;SHT31;56792;50.644;17.984;2022-11-02T13:55:14;32.12;23.37
69589;SHT31;56792;50.644;17.984;2022-11-02T13:57:53;31.72;23.69
69589;SHT31;56792;50.644;17.984;2022-11-02T14:00:28;31.46;23.62
69589;SHT31;56792;50.644;17.984;2022-11-02T14:03:10;30.47;24.30
69589;SHT31;56792;50.644;17.984;2022-11-02T14:05:48;29.59;25.04
69589;SHT31;56792;50.644;17.984;2022-11-02T14:08:27;28.88;25.68
69589;SHT31;56792;50.644;17.984;2022-11-02T14:11:23;28.39;26.34
69589;SHT31;56792;50.644;17.984;2022-11-02T14:14:18;27.11;27.63
69589;SHT31;56792;50.644;17.984;2022-11-02T14:17:10;26.00;28.78
69589;SHT31;56792;50.644;17.984;2022-11-02T14:32:21;21.90;35.06
69589;SHT31;56792;50.644;17.984;2022-11-02T14:35:21;21.31;36.13
69589;SHT31;56792;50.644;17.984;2022-11-02T14:41:30;20.24;38.10
69589;SHT31;56792;50.644;17.984;2022-11-02T14:44:26;19.76;38.92
69589;SHT31;56792;50.644;17.984;2022-11-02T14:47:33;19.24;40.11
69589;SHT31;56792;50.644;17.984;2022-11-02T14:50:12;18.87;40.87
69589;SHT31;56792;50.644;17.984;2022-11-02T14:52:55;18.47;41.84
69589;SHT31;56792;50.644;17.984;2022-11-02T14:55:33;18.05;42.55
69589;SHT31;56792;50.644;17.984;2022-11-02T14:58:12;17.75;43.15
69589;SHT31;56792;50.644;17.984;2022-11-02T15:00:55;17.47;44.05
69589;SHT31;56792;50.644;17.984;2022-11-02T15:03:33;17.16;44.98
69589;SHT31;56792;50.644;17.984;2022-11-02T15:06:12;16.89;45.58
69589;SHT31;56792;50.644;17.984;2022-11-02T15:08:55;16.65;46.18
69589;SHT31;56792;50.644;17.984;2022-11-02T15:11:45;16.40;47.66
69589;SHT31;56792;50.644;17.984;2022-11-02T15:20:40;15.90;49.33
69589;SHT31;56792;50.644;17.984;2022-11-02T15:23:18;15.78;49.97
69589;SHT31;56792;50.644;17.984;2022-11-02T15:25:56;15.65;50.34
69589;SHT31;56792;50.644;17.984;2022-11-02T15:28:33;15.54;50.57
69589;SHT31;56792;50.644;17.984;2022-11-02T15:31:12;15.44;50.84
69589;SHT31;56792;50.644;17.984;2022-11-02T15:33:48;15.33;51.51
69589;SHT31;56792;50.644;17.984;2022-11-02T15:36:26;15.23;51.80
69589;SHT31;56792;50.644;17.984;2022-11-02T15:39:04;15.13;52.10
69589;SHT31;56792;50.644;17.984;2022-11-02T15:41:42;15.04;52.61
69589;SHT31;56792;50.644;17.984;2022-11-02T15:44:30;14.93;53.37
69589;SHT31;56792;50.644;17.984;2022-11-02T15:47:30;14.82;53.82
69589;SHT31;56792;50.644;17.984;2022-11-02T15:50:17;14.73;54.17
69589;SHT31;56792;50.644;17.984;2022-11-02T15:56:31;14.51;55.26
69589;SHT31;56792;50.644;17.984;2022-11-02T15:59:27;14.40;55.30
69589;SHT31;56792;50.644;17.984;2022-11-02T16:02:26;14.32;55.68
69589;SHT31;56792;50.644;17.984;2022-11-02T16:05:04;14.26;55.92
69589;SHT31;56792;50.644;17.984;2022-11-02T16:07:47;14.19;56.15
69589;SHT31;56792;50.644;17.984;2022-11-02T16:10:24;14.14;56.60
69589;SHT31;56792;50.644;17.984;2022-11-02T16:13:11;14.10;56.91
69589;SHT31;56792;50.644;17.984;2022-11-02T16:15:48;14.08;56.99
69589;SHT31;56792;50.644;17.984;2022-11-02T16:18:35;14.07;57.41
69589;SHT31;56792;50.644;17.984;2022-11-02T16:21:11;14.06;57.66
69589;SHT31;56792;50.644;17.984;2022-11-02T16:23:47;14.04;57.85
69589;SHT31;56792;50.644;17.984;2022-11-02T16:26:25;14.03;58.03
69589;SHT31;56792;50.644;17.984;2022-11-02T16:29:02;14.03;58.36
69589;SHT31;56792;50.644;17.984;2022-11-02T16:31:39;14.02;58.45
69589;SHT31;56792;50.644;17.984;2022-11-02T16:34:15;14.02;58.48
69589;SHT31;56792;50.644;17.984;2022-11-02T16:36:53;14.02;58.48
69589;SHT31;56792;50.644;17.984;2022-11-02T16:39:29;14.02;58.48
69589;SHT31;56792;50.644;17.984;2022-11-02T16:42:08;14.04;58.52
69589;SHT31;56792;50.644;17.984;2022-11-02T16:44:55;14.05;58.60
69589;SHT31;56792;50.644;17.984;2022-11-02T16:47:38;14.05;58.73
69589;SHT31;56792;50.644;17.984;2022-11-02T16:50:18;14.05;58.85
69589;SHT31;56792;50.644;17.984;2022-11-02T16:52:54;14.03;58.94
69589;SHT31;56792;50.644;17.984;2022-11-02T16:55:41;13.99;59.15
69589;SHT31;56792;50.644;17.984;2022-11-02T16:58:16;13.97;59.27